sensor_id;sensor_type;location;lat;lon;timestamp;pressure;altitude;pressure_sealevel;temperature;humidity
67377;BME280;54261;46.086;6.588;2023-03-18T00:03:02;92275.75;;;9.46;34.89
67377;BME280;54261;46.086;6.588;2023-03-18T00:08:05;92257.91;;;9.50;34.59
67377;BME280;54261;46.086;6.588;2023-03-18T00:13:07;92264.38;;;9.84;33.86
67377;BME280;54261;46.086;6.588;2023-03-18T00:18:09;92274.91;;;9.89;33.75
67377;BME280;54261;46.086;6.588;2023-03-18T00:23:11;92257.44;;;9.83;33.33
67377;BME280;54261;46.086;6.588;2023-03-18T00:28:13;92246.59;;;9.35;34.68
67377;BME280;54261;46.086;6.588;2023-03-18T00:33:19;92270.50;;;9.76;34.09
67377;BME280;54261;46.086;6.588;2023-03-18T00:38:21;92279.81;;;9.87;33.72
67377;BME280;54261;46.086;6.588;2023-03-18T00:43:24;92277.47;;;9.68;33.81
67377;BME280;54261;46.086;6.588;2023-03-18T00:48:30;92276.13;;;8.95;34.43
67377;BME280;54261;46.086;6.588;2023-03-18T00:53:32;92253.03;;;9.26;34.71
67377;BME280;54261;46.086;6.588;2023-03-18T00:58:34;92246.88;;;9.25;34.46
67377;BME280;54261;46.086;6.588;2023-03-18T01:03:40;92244.16;;;8.81;35.28
67377;BME280;54261;46.086;6.588;2023-03-18T01:08:43;92228.16;;;8.41;35.57
67377;BME280;54261;46.086;6.588;2023-03-18T01:13:45;92225.72;;;8.79;35.35
67377;BME280;54261;46.086;6.588;2023-03-18T01:18:47;92201.59;;;8.13;36.39
67377;BME280;54261;46.086;6.588;2023-03-18T01:23:48;92215.59;;;8.59;36.02
67377;BME280;54261;46.086;6.588;2023-03-18T01:28:51;92201.63;;;8.62;36.21
67377;BME280;54261;46.086;6.588;2023-03-18T01:33:53;92204.59;;;8.69;35.87
67377;BME280;54261;46.086;6.588;2023-03-18T01:38:55;92194.19;;;8.59;36.31
67377;BME280;54261;46.086;6.588;2023-03-18T01:43:58;92181.00;;;8.71;35.58
67377;BME280;54261;46.086;6.588;2023-03-18T01:49:27;92181.16;;;8.66;36.35
67377;BME280;54261;46.086;6.588;2023-03-18T01:54:36;92176.16;;;8.82;35.66
67377;BME280;54261;46.086;6.588;2023-03-18T01:59:40;92169.84;;;8.87;35.85
67377;BME280;54261;46.086;6.588;2023-03-18T02:04:47;92174.41;;;8.69;35.64
67377;BME280;54261;46.086;6.588;2023-03-18T02:09:52;92166.47;;;8.37;35.75
67377;BME280;54261;46.086;6.588;2023-03-18T02:14:55;92146.09;;;8.68;35.02
67377;BME280;54261;46.086;6.588;2023-03-18T02:30:46;92169.69;;;8.16;36.17
67377;BME280;54261;46.086;6.588;2023-03-18T02:36:00;92168.44;;;8.72;35.37
67377;BME280;54261;46.086;6.588;2023-03-18T02:41:04;92160.59;;;8.17;35.64
67377;BME280;54261;46.086;6.588;2023-03-18T02:51:36;92167.41;;;8.32;35.82
67377;BME280;54261;46.086;6.588;2023-03-18T02:56:39;92165.63;;;7.87;36.29
67377;BME280;54261;46.086;6.588;2023-03-18T03:01:44;92166.59;;;8.32;35.62
67377;BME280;54261;46.086;6.588;2023-03-18T03:06:47;92169.16;;;7.42;37.49
67377;BME280;54261;46.086;6.588;2023-03-18T03:11:52;92171.84;;;7.74;37.27
67377;BME280;54261;46.086;6.588;2023-03-18T03:16:57;92176.72;;;7.72;37.79
67377;BME280;54261;46.086;6.588;2023-03-18T03:21:59;92181.16;;;7.76;36.80
67377;BME280;54261;46.086;6.588;2023-03-18T03:27:01;92187.41;;;7.94;36.73
67377;BME280;54261;46.086;6.588;2023-03-18T03:32:03;92188.97;;;7.96;36.92
67377;BME280;54261;46.086;6.588;2023-03-18T03:37:05;92199.19;;;7.93;37.32
67377;BME280;54261;46.086;6.588;2023-03-18T03:42:07;92199.63;;;8.27;36.82
67377;BME280;54261;46.086;6.588;2023-03-18T03:47:10;92182.47;;;7.33;37.92
67377;BME280;54261;46.086;6.588;2023-03-18T03:52:12;92191.25;;;7.88;37.40
67377;BME280;54261;46.086;6.588;2023-03-18T03:57:16;92189.56;;;7.61;36.43
67377;BME280;54261;46.086;6.588;2023-03-18T04:02:18;92187.97;;;7.14;38.06
67377;BME280;54261;46.086;6.588;2023-03-18T04:07:22;92191.00;;;7.90;36.96
67377;BME280;54261;46.086;6.588;2023-03-18T04:12:24;92192.28;;;7.92;36.40
67377;BME280;54261;46.086;6.588;2023-03-18T04:17:32;92161.88;;;7.57;36.84
67377;BME280;54261;46.086;6.588;2023-03-18T04:22:34;92170.13;;;7.78;36.72
67377;BME280;54261;46.086;6.588;2023-03-18T04:27:39;92179.56;;;7.44;37.34
67377;BME280;54261;46.086;6.588;2023-03-18T04:32:44;92179.91;;;7.51;37.10
67377;BME280;54261;46.086;6.588;2023-03-18T04:37:46;92162.19;;;7.32;37.16
67377;BME280;54261;46.086;6.588;2023-03-18T04:42:49;92176.41;;;7.19;36.64
67377;BME280;54261;46.086;6.588;2023-03-18T04:47:56;92162.13;;;7.01;37.07
67377;BME280;54261;46.086;6.588;2023-03-18T04:53:00;92181.81;;;7.05;37.26
67377;BME280;54261;46.086;6.588;2023-03-18T04:58:04;92170.25;;;6.59;38.01
67377;BME280;54261;46.086;6.588;2023-03-18T05:03:12;92160.50;;;6.91;37.79
67377;BME280;54261;46.086;6.588;2023-03-18T05:08:14;92174.06;;;6.80;38.56
67377;BME280;54261;46.086;6.588;2023-03-18T05:13:18;92170.53;;;6.57;38.20
67377;BME280;54261;46.086;6.588;2023-03-18T05:18:20;92158.19;;;6.75;38.57
67377;BME280;54261;46.086;6.588;2023-03-18T05:23:25;92164.44;;;7.16;37.10
67377;BME280;54261;46.086;6.588;2023-03-18T05:28:31;92149.59;;;7.01;37.43
67377;BME280;54261;46.086;6.588;2023-03-18T05:33:59;92181.59;;;7.47;36.78
67377;BME280;54261;46.086;6.588;2023-03-18T05:39:06;92161.72;;;7.07;37.67
67377;BME280;54261;46.086;6.588;2023-03-18T05:44:08;92168.63;;;7.31;37.38
67377;BME280;54261;46.086;6.588;2023-03-18T05:49:12;92175.69;;;7.27;36.61
67377;BME280;54261;46.086;6.588;2023-03-18T05:54:22;92171.31;;;7.31;36.74
67377;BME280;54261;46.086;6.588;2023-03-18T05:59:24;92171.00;;;7.33;36.72
67377;BME280;54261;46.086;6.588;2023-03-18T06:04:30;92178.09;;;7.15;37.33
67377;BME280;54261;46.086;6.588;2023-03-18T06:09:32;92182.00;;;7.31;37.03
67377;BME280;54261;46.086;6.588;2023-03-18T06:14:36;92183.22;;;7.57;36.67
67377;BME280;54261;46.086;6.588;2023-03-18T06:19:39;92182.38;;;7.38;36.76
67377;BME280;54261;46.086;6.588;2023-03-18T06:24:43;92172.81;;;7.46;36.75
67377;BME280;54261;46.086;6.588;2023-03-18T06:29:48;92181.88;;;7.14;37.68
67377;BME280;54261;46.086;6.588;2023-03-18T06:34:52;92186.66;;;7.48;37.87
67377;BME280;54261;46.086;6.588;2023-03-18T06:39:54;92186.13;;;7.69;37.68
67377;BME280;54261;46.086;6.588;2023-03-18T06:44:56;92185.69;;;7.21;37.58
67377;BME280;54261;46.086;6.588;2023-03-18T06:50:08;92183.84;;;7.31;38.47
67377;BME280;54261;46.086;6.588;2023-03-18T06:55:11;92188.91;;;7.32;38.88
67377;BME280;54261;46.086;6.588;2023-03-18T07:00:17;92182.09;;;7.49;38.62
67377;BME280;54261;46.086;6.588;2023-03-18T07:05:19;92181.66;;;7.87;37.81
67377;BME280;54261;46.086;6.588;2023-03-18T07:10:26;92184.28;;;7.47;38.40
67377;BME280;54261;46.086;6.588;2023-03-18T07:15:36;92188.00;;;7.91;37.63
67377;BME280;54261;46.086;6.588;2023-03-18T07:20:39;92182.88;;;7.72;37.62
67377;BME280;54261;46.086;6.588;2023-03-18T07:25:42;92194.09;;;7.37;38.87
67377;BME280;54261;46.086;6.588;2023-03-18T07:30:45;92200.16;;;7.75;38.55
67377;BME280;54261;46.086;6.588;2023-03-18T07:35:47;92206.91;;;8.04;38.12
67377;BME280;54261;46.086;6.588;2023-03-18T07:40:50;92209.78;;;8.16;37.99
67377;BME280;54261;46.086;6.588;2023-03-18T07:45:52;92212.09;;;8.00;37.38
67377;BME280;54261;46.086;6.588;2023-03-18T07:50:54;92207.09;;;7.85;37.87
67377;BME280;54261;46.086;6.588;2023-03-18T07:55:56;92225.03;;;8.47;37.45
67377;BME280;54261;46.086;6.588;2023-03-18T08:00:58;92206.97;;;7.58;38.14
67377;BME280;54261;46.086;6.588;2023-03-18T08:06:00;92231.69;;;8.76;36.91
67377;BME280;54261;46.086;6.588;2023-03-18T08:11:02;92245.00;;;8.10;38.25
67377;BME280;54261;46.086;6.588;2023-03-18T08:16:05;92217.44;;;7.77;38.46
67377;BME280;54261;46.086;6.588;2023-03-18T08:21:07;92231.31;;;7.57;38.88
67377;BME280;54261;46.086;6.588;2023-03-18T08:26:10;92235.38;;;4.97;43.28
67377;BME280;54261;46.086;6.588;2023-03-18T08:31:12;92224.88;;;4.87;45.28
67377;BME280;54261;46.086;6.588;2023-03-18T08:36:15;92221.66;;;1.98;55.96
67377;BME280;54261;46.086;6.588;2023-03-18T08:41:17;92237.31;;;1.89;53.29
67377;BME280;54261;46.086;6.588;2023-03-18T08:46:18;92224.59;;;2.62;52.49
67377;BME280;54261;46.086;6.588;2023-03-18T08:51:20;92222.72;;;4.02;48.17
67377;BME280;54261;46.086;6.588;2023-03-18T08:56:25;92212.16;;;5.55;45.86
67377;BME280;54261;46.086;6.588;2023-03-18T09:01:27;92220.78;;;5.94;46.96
67377;BME280;54261;46.086;6.588;2023-03-18T09:06:29;92208.63;;;7.22;41.34
67377;BME280;54261;46.086;6.588;2023-03-18T09:11:31;92207.69;;;4.79;45.39
67377;BME280;54261;46.086;6.588;2023-03-18T09:16:34;92205.69;;;4.27;46.84
67377;BME280;54261;46.086;6.588;2023-03-18T09:21:36;92198.53;;;5.23;45.86
67377;BME280;54261;46.086;6.588;2023-03-18T09:26:39;92203.56;;;5.58;46.38
67377;BME280;54261;46.086;6.588;2023-03-18T09:31:41;92192.22;;;6.14;42.22
67377;BME280;54261;46.086;6.588;2023-03-18T09:36:43;92188.94;;;4.89;45.08
67377;BME280;54261;46.086;6.588;2023-03-18T09:42:25;92197.81;;;4.22;48.85
67377;BME280;54261;46.086;6.588;2023-03-18T09:48:04;92188.44;;;4.24;49.39
67377;BME280;54261;46.086;6.588;2023-03-18T09:53:39;92180.97;;;4.70;47.45
67377;BME280;54261;46.086;6.588;2023-03-18T09:58:49;92193.31;;;7.60;43.95
67377;BME280;54261;46.086;6.588;2023-03-18T10:04:24;92196.03;;;6.49;41.60
67377;BME280;54261;46.086;6.588;2023-03-18T10:09:37;92191.13;;;6.93;42.05
67377;BME280;54261;46.086;6.588;2023-03-18T10:14:46;92187.72;;;10.40;37.67
67377;BME280;54261;46.086;6.588;2023-03-18T10:20:21;92196.25;;;6.25;43.16
67377;BME280;54261;46.086;6.588;2023-03-18T10:25:35;92188.56;;;8.78;38.76
67377;BME280;54261;46.086;6.588;2023-03-18T10:36:21;92189.25;;;10.11;37.59
67377;BME280;54261;46.086;6.588;2023-03-18T10:41:29;92194.53;;;8.66;37.93
67377;BME280;54261;46.086;6.588;2023-03-18T10:46:34;92198.16;;;8.79;37.09
67377;BME280;54261;46.086;6.588;2023-03-18T10:51:46;92201.50;;;7.18;41.66
67377;BME280;54261;46.086;6.588;2023-03-18T10:56:50;92202.63;;;10.19;36.00
67377;BME280;54261;46.086;6.588;2023-03-18T11:01:57;92209.06;;;9.53;36.70
67377;BME280;54261;46.086;6.588;2023-03-18T11:07:02;92205.16;;;9.24;35.60
67377;BME280;54261;46.086;6.588;2023-03-18T11:17:30;92193.84;;;11.43;33.97
67377;BME280;54261;46.086;6.588;2023-03-18T11:22:35;92206.91;;;12.83;31.49
67377;BME280;54261;46.086;6.588;2023-03-18T11:27:46;92207.59;;;8.18;37.42
67377;BME280;54261;46.086;6.588;2023-03-18T11:32:55;92205.81;;;7.28;38.43
67377;BME280;54261;46.086;6.588;2023-03-18T11:38:02;92198.97;;;8.79;36.48
67377;BME280;54261;46.086;6.588;2023-03-18T11:43:14;92180.81;;;8.01;36.73
67377;BME280;54261;46.086;6.588;2023-03-18T11:48:27;92191.06;;;8.07;35.95
67377;BME280;54261;46.086;6.588;2023-03-18T11:53:43;92188.91;;;7.87;38.11
67377;BME280;54261;46.086;6.588;2023-03-18T12:04:09;92195.13;;;8.05;38.44
67377;BME280;54261;46.086;6.588;2023-03-18T12:10:29;92186.13;;;8.41;37.12
67377;BME280;54261;46.086;6.588;2023-03-18T12:15:08;92182.81;;;9.11;37.00
67377;BME280;54261;46.086;6.588;2023-03-18T12:26:07;92177.59;;;11.18;33.56
67377;BME280;54261;46.086;6.588;2023-03-18T12:36:31;92169.44;;;10.33;33.56
67377;BME280;54261;46.086;6.588;2023-03-18T12:47:27;92152.56;;;8.17;37.03
67377;BME280;54261;46.086;6.588;2023-03-18T12:57:47;92162.31;;;8.13;36.91
67377;BME280;54261;46.086;6.588;2023-03-18T13:13:45;92159.59;;;7.41;37.94
67377;BME280;54261;46.086;6.588;2023-03-18T13:18:52;92152.81;;;7.98;36.92
67377;BME280;54261;46.086;6.588;2023-03-18T13:29:17;92164.47;;;9.66;33.00
67377;BME280;54261;46.086;6.588;2023-03-18T13:34:49;92159.78;;;8.84;35.96
67377;BME280;54261;46.086;6.588;2023-03-18T13:41:02;92148.13;;;8.97;34.12
67377;BME280;54261;46.086;6.588;2023-03-18T13:45:57;92165.28;;;10.14;34.84
67377;BME280;54261;46.086;6.588;2023-03-18T13:51:17;92160.56;;;8.93;35.23
67377;BME280;54261;46.086;6.588;2023-03-18T14:01:32;92167.28;;;7.97;35.65
67377;BME280;54261;46.086;6.588;2023-03-18T14:06:50;92158.91;;;10.28;35.18
67377;BME280;54261;46.086;6.588;2023-03-18T14:11:52;92158.94;;;10.19;33.20
67377;BME280;54261;46.086;6.588;2023-03-18T14:16:55;92153.28;;;9.55;35.17
67377;BME280;54261;46.086;6.588;2023-03-18T14:22:21;92150.03;;;8.97;34.35
67377;BME280;54261;46.086;6.588;2023-03-18T14:27:24;92153.63;;;12.26;30.31
67377;BME280;54261;46.086;6.588;2023-03-18T14:43:07;92147.00;;;12.86;30.42
67377;BME280;54261;46.086;6.588;2023-03-18T14:48:17;92136.50;;;11.72;31.25
67377;BME280;54261;46.086;6.588;2023-03-18T14:53:39;92137.81;;;10.47;31.26
67377;BME280;54261;46.086;6.588;2023-03-18T14:58:46;92136.09;;;11.15;31.54
67377;BME280;54261;46.086;6.588;2023-03-18T15:03:49;92129.09;;;9.16;33.26
67377;BME280;54261;46.086;6.588;2023-03-18T15:08:59;92140.13;;;9.80;32.15
67377;BME280;54261;46.086;6.588;2023-03-18T15:14:02;92143.53;;;8.71;33.84
67377;BME280;54261;46.086;6.588;2023-03-18T15:19:04;92140.03;;;10.45;31.75
67377;BME280;54261;46.086;6.588;2023-03-18T15:24:07;92145.72;;;9.57;32.18
67377;BME280;54261;46.086;6.588;2023-03-18T15:29:30;92160.06;;;8.56;33.37
67377;BME280;54261;46.086;6.588;2023-03-18T15:34:37;92161.63;;;7.99;34.49
67377;BME280;54261;46.086;6.588;2023-03-18T15:39:42;92167.63;;;7.50;35.40
67377;BME280;54261;46.086;6.588;2023-03-18T15:44:44;92160.88;;;9.35;34.71
67377;BME280;54261;46.086;6.588;2023-03-18T15:50:00;92162.94;;;10.04;32.75
67377;BME280;54261;46.086;6.588;2023-03-18T15:55:19;92166.75;;;8.27;34.85
67377;BME280;54261;46.086;6.588;2023-03-18T16:00:25;92159.47;;;8.18;34.32
67377;BME280;54261;46.086;6.588;2023-03-18T16:05:27;92170.63;;;8.96;33.57
67377;BME280;54261;46.086;6.588;2023-03-18T16:10:29;92173.00;;;9.33;32.38
67377;BME280;54261;46.086;6.588;2023-03-18T16:15:33;92175.13;;;8.34;33.51
67377;BME280;54261;46.086;6.588;2023-03-18T16:20:36;92186.78;;;8.56;32.70
67377;BME280;54261;46.086;6.588;2023-03-18T16:25:38;92188.72;;;8.73;33.06
67377;BME280;54261;46.086;6.588;2023-03-18T16:30:39;92187.84;;;10.13;31.04
67377;BME280;54261;46.086;6.588;2023-03-18T16:35:42;92210.63;;;11.40;29.66
67377;BME280;54261;46.086;6.588;2023-03-18T16:40:44;92201.75;;;11.60;29.02
67377;BME280;54261;46.086;6.588;2023-03-18T16:45:48;92211.44;;;11.86;28.53
67377;BME280;54261;46.086;6.588;2023-03-18T16:50:51;92223.19;;;10.75;29.54
67377;BME280;54261;46.086;6.588;2023-03-18T16:56:08;92219.88;;;12.19;28.53
67377;BME280;54261;46.086;6.588;2023-03-18T17:01:17;92222.25;;;12.57;28.29
67377;BME280;54261;46.086;6.588;2023-03-18T17:06:20;92230.53;;;13.68;27.01
67377;BME280;54261;46.086;6.588;2023-03-18T17:11:23;92230.44;;;13.52;27.48
67377;BME280;54261;46.086;6.588;2023-03-18T17:16:26;92235.28;;;13.46;28.83
67377;BME280;54261;46.086;6.588;2023-03-18T17:21:31;92224.38;;;13.14;26.93
67377;BME280;54261;46.086;6.588;2023-03-18T17:26:34;92243.97;;;13.80;26.72
67377;BME280;54261;46.086;6.588;2023-03-18T17:31:36;92246.91;;;14.04;26.26
67377;BME280;54261;46.086;6.588;2023-03-18T17:36:38;92237.06;;;12.89;26.70
67377;BME280;54261;46.086;6.588;2023-03-18T17:41:41;92195.69;;;12.56;27.39
67377;BME280;54261;46.086;6.588;2023-03-18T17:46:43;92250.84;;;13.78;26.84
67377;BME280;54261;46.086;6.588;2023-03-18T17:51:45;92248.88;;;13.50;26.37
67377;BME280;54261;46.086;6.588;2023-03-18T17:56:51;92258.47;;;14.04;26.15
67377;BME280;54261;46.086;6.588;2023-03-18T18:01:53;92251.28;;;13.80;25.81
67377;BME280;54261;46.086;6.588;2023-03-18T18:06:55;92271.19;;;14.04;25.49
67377;BME280;54261;46.086;6.588;2023-03-18T18:11:57;92239.94;;;13.62;25.57
67377;BME280;54261;46.086;6.588;2023-03-18T18:16:59;92261.09;;;14.01;25.41
67377;BME280;54261;46.086;6.588;2023-03-18T18:22:01;92274.81;;;13.67;26.15
67377;BME280;54261;46.086;6.588;2023-03-18T18:27:04;92255.56;;;13.27;26.59
67377;BME280;54261;46.086;6.588;2023-03-18T18:32:06;92283.13;;;13.37;26.70
67377;BME280;54261;46.086;6.588;2023-03-18T18:37:08;92262.06;;;13.39;26.50
67377;BME280;54261;46.086;6.588;2023-03-18T18:42:10;92285.22;;;13.15;26.72
67377;BME280;54261;46.086;6.588;2023-03-18T18:47:17;92283.22;;;12.28;28.17
67377;BME280;54261;46.086;6.588;2023-03-18T18:52:20;92288.09;;;13.22;28.28
67377;BME280;54261;46.086;6.588;2023-03-18T18:57:27;92280.94;;;13.14;29.15
67377;BME280;54261;46.086;6.588;2023-03-18T19:02:32;92294.41;;;13.14;28.62
67377;BME280;54261;46.086;6.588;2023-03-18T19:07:35;92282.75;;;13.10;29.20
67377;BME280;54261;46.086;6.588;2023-03-18T19:12:38;92295.31;;;12.81;29.56
67377;BME280;54261;46.086;6.588;2023-03-18T19:17:40;92286.41;;;12.09;29.51
67377;BME280;54261;46.086;6.588;2023-03-18T19:22:43;92298.22;;;11.96;29.42
67377;BME280;54261;46.086;6.588;2023-03-18T19:27:45;92296.25;;;12.39;29.67
67377;BME280;54261;46.086;6.588;2023-03-18T19:32:48;92297.47;;;12.41;28.71
67377;BME280;54261;46.086;6.588;2023-03-18T19:37:50;92303.91;;;12.74;29.12
67377;BME280;54261;46.086;6.588;2023-03-18T19:42:52;92292.72;;;12.84;28.39
67377;BME280;54261;46.086;6.588;2023-03-18T19:47:54;92295.25;;;12.68;28.51
67377;BME280;54261;46.086;6.588;2023-03-18T19:52:56;92303.75;;;12.92;29.75
67377;BME280;54261;46.086;6.588;2023-03-18T19:58:00;92299.41;;;12.53;30.57
67377;BME280;54261;46.086;6.588;2023-03-18T20:03:01;92302.84;;;12.41;30.05
67377;BME280;54261;46.086;6.588;2023-03-18T20:08:05;92309.41;;;12.65;30.08
67377;BME280;54261;46.086;6.588;2023-03-18T20:13:16;92303.59;;;12.29;29.86
67377;BME280;54261;46.086;6.588;2023-03-18T20:18:18;92306.31;;;11.96;29.75
67377;BME280;54261;46.086;6.588;2023-03-18T20:23:22;92296.97;;;11.93;30.33
67377;BME280;54261;46.086;6.588;2023-03-18T20:28:26;92297.72;;;11.39;30.62
67377;BME280;54261;46.086;6.588;2023-03-18T20:33:28;92311.88;;;11.27;30.26
67377;BME280;54261;46.086;6.588;2023-03-18T20:38:35;92309.50;;;11.46;30.21
67377;BME280;54261;46.086;6.588;2023-03-18T20:43:38;92289.91;;;11.46;29.75
67377;BME280;54261;46.086;6.588;2023-03-18T20:48:41;92304.56;;;11.27;29.40
67377;BME280;54261;46.086;6.588;2023-03-18T20:53:44;92295.25;;;11.55;28.88
67377;BME280;54261;46.086;6.588;2023-03-18T20:58:46;92327.66;;;12.13;29.84
67377;BME280;54261;46.086;6.588;2023-03-18T21:03:47;92331.53;;;12.04;29.51
67377;BME280;54261;46.086;6.588;2023-03-18T21:08:49;92329.16;;;12.23;28.96
67377;BME280;54261;46.086;6.588;2023-03-18T21:13:51;92332.09;;;12.30;28.76
67377;BME280;54261;46.086;6.588;2023-03-18T21:18:53;92322.16;;;12.43;29.09
67377;BME280;54261;46.086;6.588;2023-03-18T21:23:55;92305.59;;;12.20;29.38
67377;BME280;54261;46.086;6.588;2023-03-18T21:28:57;92325.97;;;12.09;29.67
67377;BME280;54261;46.086;6.588;2023-03-18T21:33:59;92346.38;;;12.10;29.06
67377;BME280;54261;46.086;6.588;2023-03-18T21:39:01;92328.25;;;11.98;28.58
67377;BME280;54261;46.086;6.588;2023-03-18T21:44:03;92348.31;;;11.37;29.50
67377;BME280;54261;46.086;6.588;2023-03-18T21:49:05;92350.84;;;10.46;31.20
67377;BME280;54261;46.086;6.588;2023-03-18T21:54:16;92358.94;;;11.54;29.80
67377;BME280;54261;46.086;6.588;2023-03-18T21:59:18;92342.94;;;11.37;30.07
67377;BME280;54261;46.086;6.588;2023-03-18T22:04:20;92351.66;;;11.25;30.26
67377;BME280;54261;46.086;6.588;2023-03-18T22:09:22;92356.31;;;11.45;29.79
67377;BME280;54261;46.086;6.588;2023-03-18T22:14:27;92341.16;;;11.41;29.64
67377;BME280;54261;46.086;6.588;2023-03-18T22:19:28;92357.41;;;11.96;29.34
67377;BME280;54261;46.086;6.588;2023-03-18T22:24:30;92346.19;;;10.26;31.66
67377;BME280;54261;46.086;6.588;2023-03-18T22:29:32;92364.84;;;11.17;30.78
67377;BME280;54261;46.086;6.588;2023-03-18T22:34:34;92342.63;;;9.19;32.04
67377;BME280;54261;46.086;6.588;2023-03-18T22:39:36;92363.59;;;9.17;32.93
67377;BME280;54261;46.086;6.588;2023-03-18T22:44:38;92372.69;;;8.67;33.13
67377;BME280;54261;46.086;6.588;2023-03-18T22:49:40;92374.56;;;9.65;32.67
67377;BME280;54261;46.086;6.588;2023-03-18T22:54:42;92376.91;;;10.28;31.93
67377;BME280;54261;46.086;6.588;2023-03-18T22:59:44;92376.41;;;9.47;31.54
67377;BME280;54261;46.086;6.588;2023-03-18T23:04:48;92392.81;;;9.54;32.92
67377;BME280;54261;46.086;6.588;2023-03-18T23:09:50;92380.56;;;9.80;32.57
67377;BME280;54261;46.086;6.588;2023-03-18T23:14:58;92342.06;;;10.85;31.74
67377;BME280;54261;46.086;6.588;2023-03-18T23:19:59;92387.84;;;11.27;30.51
67377;BME280;54261;46.086;6.588;2023-03-18T23:25:02;92389.31;;;10.68;31.31
67377;BME280;54261;46.086;6.588;2023-03-18T23:30:05;92387.88;;;11.49;30.40
67377;BME280;54261;46.086;6.588;2023-03-18T23:35:08;92379.78;;;11.57;30.35
67377;BME280;54261;46.086;6.588;2023-03-18T23:40:10;92395.16;;;9.47;32.52
67377;BME280;54261;46.086;6.588;2023-03-18T23:45:12;92400.13;;;10.98;31.19
67377;BME280;54261;46.086;6.588;2023-03-18T23:50:14;92400.22;;;11.20;30.47
67377;BME280;54261;46.086;6.588;2023-03-18T23:55:16;92396.00;;;11.40;30.17
